createdAt,value
2019-03-09T00:01:48.521Z,2.30
2019-03-09T00:04:17.157Z,3.10
2019-03-09T00:06:45.896Z,2.93
2019-03-09T00:09:14.677Z,2.80
2019-03-09T00:11:43.425Z,2.20
2019-03-09T00:14:12.119Z,2.57
2019-03-09T00:16:40.848Z,2.47
2019-03-09T00:19:09.589Z,2.43
2019-03-09T00:21:38.305Z,2.20
2019-03-09T00:24:24.650Z,2.30
2019-03-09T00:27:00.005Z,2.37
2019-03-09T00:29:46.229Z,2.30
2019-03-09T00:32:17.187Z,2.40
2019-03-09T00:34:45.971Z,2.50
2019-03-09T00:37:14.630Z,2.50
2019-03-09T00:39:43.344Z,2.60
2019-03-09T00:42:12.033Z,2.10
2019-03-09T00:44:40.689Z,2.37
2019-03-09T00:47:09.626Z,2.20
2019-03-09T00:49:38.397Z,2.50
2019-03-09T00:52:07.023Z,2.67
2019-03-09T00:54:35.685Z,2.43
2019-03-09T00:57:04.392Z,2.50
2019-03-09T00:59:33.041Z,2.60
2019-03-09T01:02:01.677Z,3.00
2019-03-09T01:04:30.349Z,2.70
2019-03-09T01:06:59.028Z,2.60
2019-03-09T01:09:27.720Z,2.57
2019-03-09T01:11:56.327Z,2.27
2019-03-09T01:14:25.095Z,2.37
2019-03-09T01:16:53.841Z,2.87
2019-03-09T01:19:22.540Z,2.80
2019-03-09T01:21:51.231Z,2.53
2019-03-09T01:24:19.813Z,2.53
2019-03-09T01:26:48.471Z,3.00
2019-03-09T01:29:17.181Z,2.70
2019-03-09T01:31:45.871Z,2.80
2019-03-09T01:34:14.537Z,3.03
2019-03-09T01:36:43.249Z,2.83
2019-03-09T01:39:11.832Z,2.80
2019-03-09T01:41:40.491Z,2.83
2019-03-09T01:44:09.184Z,2.80
2019-03-09T01:46:37.920Z,2.40
2019-03-09T01:49:06.605Z,2.47
2019-03-09T01:51:35.292Z,3.07
2019-03-09T01:54:04.099Z,2.87
2019-03-09T01:56:32.761Z,2.47
2019-03-09T01:59:01.435Z,2.93
2019-03-09T02:01:30.217Z,2.80
2019-03-09T02:03:58.860Z,3.00
2019-03-09T02:06:27.509Z,3.10
2019-03-09T02:08:56.189Z,2.63
2019-03-09T02:11:24.847Z,3.00
2019-03-09T02:13:53.505Z,2.60
2019-03-09T02:16:22.189Z,2.30
2019-03-09T02:18:50.816Z,2.93
2019-03-09T02:21:19.538Z,2.53
2019-03-09T02:23:48.230Z,2.70
2019-03-09T02:26:16.920Z,2.50
2019-03-09T02:28:45.668Z,2.60
2019-03-09T02:31:14.459Z,2.27
2019-03-09T02:33:43.108Z,2.60
2019-03-09T02:36:11.746Z,2.23
2019-03-09T02:38:59.504Z,2.27
2019-03-09T02:41:28.156Z,2.33
2019-03-09T02:43:56.883Z,2.30
2019-03-09T02:46:25.530Z,2.47
2019-03-09T02:48:54.210Z,2.23
2019-03-09T02:51:22.956Z,2.20
2019-03-09T02:53:51.659Z,2.40
2019-03-09T02:56:20.313Z,2.80
2019-03-09T02:58:49.013Z,2.43
2019-03-09T03:01:35.335Z,2.50
2019-03-09T03:04:03.989Z,2.10
2019-03-09T03:06:32.673Z,2.50
2019-03-09T03:09:01.443Z,2.90
2019-03-09T03:11:30.089Z,3.30
2019-03-09T03:13:58.775Z,3.50
2019-03-09T03:16:27.521Z,3.23
2019-03-09T03:18:56.193Z,3.03
2019-03-09T03:21:24.857Z,3.20
2019-03-09T03:23:53.490Z,2.80
2019-03-09T03:26:22.161Z,2.17
2019-03-09T03:28:50.839Z,2.17
2019-03-09T03:31:19.613Z,2.33
2019-03-09T03:33:48.343Z,2.30
2019-03-09T03:36:17.013Z,2.40
2019-03-09T03:38:45.692Z,2.20
2019-03-09T03:41:14.406Z,1.97
2019-03-09T03:43:43.057Z,1.90
2019-03-09T03:46:11.675Z,1.90
2019-03-09T03:48:40.448Z,2.13
2019-03-09T03:51:09.211Z,1.70
2019-03-09T03:53:37.949Z,1.87
2019-03-09T03:56:06.626Z,2.10
2019-03-09T03:58:35.294Z,1.87
2019-03-09T04:01:03.940Z,2.07
2019-03-09T04:03:32.551Z,2.10
2019-03-09T04:06:01.241Z,2.10
2019-03-09T04:08:30.030Z,1.90
2019-03-09T04:10:58.635Z,2.33
2019-03-09T04:13:27.435Z,1.93
2019-03-09T04:15:56.054Z,2.17
2019-03-09T04:18:24.753Z,1.87
2019-03-09T04:20:53.484Z,2.00
2019-03-09T04:23:22.181Z,2.07
2019-03-09T04:25:50.941Z,2.07
2019-03-09T04:28:19.600Z,2.03
2019-03-09T04:30:48.202Z,2.10
2019-03-09T04:33:16.934Z,2.10
2019-03-09T04:35:45.520Z,2.17
2019-03-09T04:38:14.208Z,1.90
2019-03-09T04:40:42.885Z,2.10
2019-03-09T04:43:11.574Z,1.80
2019-03-09T04:45:40.287Z,1.80
2019-03-09T04:48:08.958Z,1.53
2019-03-09T04:50:37.641Z,1.40
2019-03-09T04:53:06.303Z,1.80
2019-03-09T04:55:34.999Z,1.50
2019-03-09T04:58:03.644Z,1.60
2019-03-09T05:00:32.291Z,1.50
2019-03-09T05:03:01.004Z,1.53
2019-03-09T05:05:29.686Z,1.53
2019-03-09T05:08:12.291Z,1.70
2019-03-09T05:10:45.420Z,1.77
2019-03-09T05:13:18.614Z,1.33
2019-03-09T05:15:47.284Z,1.67
2019-03-09T05:18:15.893Z,1.50
2019-03-09T05:20:44.568Z,1.60
2019-03-09T05:23:13.230Z,1.50
2019-03-09T05:25:41.850Z,1.70
2019-03-09T05:28:10.541Z,1.90
2019-03-09T05:30:39.916Z,1.50
2019-03-09T05:33:08.743Z,1.57
2019-03-09T05:35:37.430Z,1.90
2019-03-09T05:38:06.184Z,1.80
2019-03-09T05:40:34.833Z,1.80
2019-03-09T05:43:03.450Z,2.03
2019-03-09T05:45:32.037Z,1.63
2019-03-09T05:48:00.680Z,1.70
2019-03-09T05:50:29.349Z,1.93
2019-03-09T05:53:05.514Z,1.80
2019-03-09T05:55:34.185Z,1.70
2019-03-09T05:58:02.828Z,1.40
2019-03-09T06:00:31.929Z,2.23
2019-03-09T06:03:00.617Z,1.73
2019-03-09T06:05:30.477Z,1.53
2019-03-09T06:07:59.149Z,1.83
2019-03-09T06:10:27.806Z,1.70
2019-03-09T06:12:56.497Z,1.60
2019-03-09T06:15:25.152Z,1.70
2019-03-09T06:17:53.853Z,1.53
2019-03-09T06:20:22.541Z,2.10
2019-03-09T06:22:51.272Z,1.60
2019-03-09T06:25:20.011Z,1.40
2019-03-09T06:27:48.680Z,1.50
2019-03-09T06:30:17.844Z,1.50
2019-03-09T06:33:04.267Z,1.57
2019-03-09T06:35:32.988Z,1.33
2019-03-09T06:38:08.779Z,1.50
2019-03-09T06:40:37.566Z,1.50
2019-03-09T06:43:06.303Z,1.70
2019-03-09T06:45:34.969Z,1.30
2019-03-09T06:48:03.591Z,1.30
2019-03-09T06:50:32.257Z,1.50
2019-03-09T06:53:02.854Z,1.23
2019-03-09T06:55:31.279Z,1.23
2019-03-09T06:57:59.940Z,1.37
2019-03-09T07:00:32.775Z,1.20
2019-03-09T07:03:01.602Z,1.47
2019-03-09T07:05:30.183Z,1.23
2019-03-09T07:07:58.861Z,1.60
2019-03-09T07:10:27.544Z,1.67
2019-03-09T07:12:56.225Z,1.50
2019-03-09T07:15:26.021Z,1.17
2019-03-09T07:18:05.040Z,1.50
2019-03-09T07:20:33.705Z,1.43
2019-03-09T07:23:02.447Z,1.50
2019-03-09T07:25:31.076Z,1.90
2019-03-09T07:28:00.711Z,1.60
2019-03-09T07:30:29.309Z,1.60
2019-03-09T07:32:58.156Z,1.60
2019-03-09T07:35:26.745Z,1.53
2019-03-09T07:37:55.405Z,1.43
2019-03-09T07:40:24.107Z,1.20
2019-03-09T07:42:52.772Z,1.33
2019-03-09T07:45:21.434Z,1.40
2019-03-09T07:47:50.155Z,1.93
2019-03-09T07:50:18.798Z,1.60
2019-03-09T07:52:47.490Z,1.37
2019-03-09T07:55:16.219Z,1.23
2019-03-09T07:57:44.856Z,1.20
2019-03-09T08:00:14.440Z,1.20
2019-03-09T08:02:43.107Z,1.20
2019-03-09T08:05:11.883Z,1.30
2019-03-09T08:07:40.495Z,1.20
2019-03-09T08:10:10.400Z,1.00
2019-03-09T08:12:39.038Z,1.10
2019-03-09T08:15:07.735Z,1.00
2019-03-09T08:17:36.404Z,1.07
2019-03-09T08:20:05.435Z,1.17
2019-03-09T08:22:34.123Z,1.00
2019-03-09T08:25:02.717Z,1.00
2019-03-09T08:27:31.406Z,1.30
2019-03-09T08:30:02.129Z,1.00
2019-03-09T08:32:30.468Z,1.10
2019-03-09T08:34:59.219Z,1.17
2019-03-09T08:37:27.933Z,1.00
2019-03-09T08:39:56.620Z,1.40
2019-03-09T08:42:25.382Z,1.07
2019-03-09T08:44:54.097Z,1.23
2019-03-09T08:47:22.844Z,1.00
2019-03-09T08:49:51.561Z,1.33
2019-03-09T08:52:20.292Z,1.20
2019-03-09T08:54:48.978Z,1.10
2019-03-09T08:57:17.726Z,1.27
2019-03-09T08:59:46.436Z,1.33
2019-03-09T09:02:15.217Z,1.30
2019-03-09T09:04:43.904Z,1.37
2019-03-09T09:07:12.630Z,1.17
2019-03-09T09:09:41.265Z,1.10
2019-03-09T09:12:09.990Z,1.17
2019-03-09T09:14:38.719Z,1.30
2019-03-09T09:17:07.391Z,1.13
2019-03-09T09:19:36.065Z,1.27
2019-03-09T09:22:06.714Z,1.00
2019-03-09T09:24:35.181Z,1.00
2019-03-09T09:27:03.852Z,0.90
2019-03-09T09:29:32.507Z,1.20
2019-03-09T09:32:01.145Z,1.00
2019-03-09T09:34:29.852Z,1.33
2019-03-09T09:36:58.431Z,1.20
2019-03-09T09:39:27.224Z,1.07
2019-03-09T09:41:55.951Z,1.17
2019-03-09T09:44:24.641Z,1.00
2019-03-09T09:46:53.397Z,1.00
2019-03-09T09:49:22.057Z,1.20
2019-03-09T09:51:50.741Z,1.50
2019-03-09T09:54:19.399Z,1.10
2019-03-09T09:56:48.070Z,1.10
2019-03-09T09:59:16.958Z,1.20
2019-03-09T10:01:45.663Z,1.37
2019-03-09T10:04:14.443Z,1.00
2019-03-09T10:06:43.119Z,1.30
2019-03-09T10:09:11.871Z,1.00
2019-03-09T10:11:40.559Z,0.97
2019-03-09T10:14:09.260Z,1.10
2019-03-09T10:16:37.895Z,1.10
2019-03-09T10:19:06.583Z,1.30
2019-03-09T10:21:35.160Z,0.93
2019-03-09T10:24:03.838Z,1.03
2019-03-09T10:26:32.513Z,1.00
2019-03-09T10:29:01.224Z,1.30
2019-03-09T10:31:29.896Z,1.03
2019-03-09T10:33:58.570Z,0.80
2019-03-09T10:36:27.243Z,0.97
2019-03-09T10:38:55.899Z,1.30
2019-03-09T10:41:24.602Z,1.00
2019-03-09T10:43:53.266Z,1.10
2019-03-09T10:46:21.899Z,0.90
2019-03-09T10:48:50.504Z,0.87
2019-03-09T10:51:19.235Z,0.97
2019-03-09T10:53:47.994Z,1.20
2019-03-09T10:56:16.630Z,1.00
2019-03-09T10:58:45.323Z,1.00
2019-03-09T11:01:13.993Z,0.90
2019-03-09T11:03:42.717Z,1.10
2019-03-09T11:06:11.445Z,0.90
2019-03-09T11:08:40.086Z,0.90
2019-03-09T11:11:08.771Z,0.80
2019-03-09T11:13:37.406Z,0.97
2019-03-09T11:16:06.120Z,1.10
2019-03-09T11:18:34.815Z,1.00
2019-03-09T11:21:03.545Z,1.00
2019-03-09T11:23:34.332Z,0.93
2019-03-09T11:26:02.562Z,1.00
2019-03-09T11:28:31.248Z,1.00
2019-03-09T11:30:59.910Z,0.97
2019-03-09T11:33:28.681Z,1.07
2019-03-09T11:35:57.406Z,0.90
2019-03-09T11:38:26.121Z,0.93
2019-03-09T11:40:58.483Z,0.77
2019-03-09T11:43:25.216Z,0.93
2019-03-09T11:45:53.889Z,1.30
2019-03-09T11:48:22.525Z,0.90
2019-03-09T11:50:51.254Z,0.97
2019-03-09T11:53:19.998Z,0.73
2019-03-09T11:55:48.644Z,1.00
2019-03-09T11:58:17.427Z,0.90
2019-03-09T12:00:46.586Z,1.00
2019-03-09T12:03:15.334Z,0.93
2019-03-09T12:05:44.040Z,0.87
2019-03-09T12:08:12.690Z,0.83
2019-03-09T12:10:41.396Z,1.00
2019-03-09T12:13:10.051Z,1.00
2019-03-09T12:15:38.717Z,0.90
2019-03-09T12:18:07.418Z,1.07
2019-03-09T12:20:36.056Z,0.80
2019-03-09T12:23:13.244Z,0.80
2019-03-09T12:25:41.969Z,0.90
2019-03-09T12:28:10.605Z,0.90
2019-03-09T12:30:39.249Z,0.87
2019-03-09T12:33:07.931Z,1.00
2019-03-09T12:35:36.561Z,0.83
2019-03-09T12:38:05.245Z,0.80
2019-03-09T12:40:33.900Z,1.03
2019-03-09T12:43:02.584Z,0.90
2019-03-09T12:45:31.328Z,1.13
2019-03-09T12:48:00.079Z,1.10
2019-03-09T12:50:28.718Z,1.10
2019-03-09T12:52:57.369Z,1.10
2019-03-09T12:55:26.029Z,1.07
2019-03-09T12:57:54.749Z,1.00
2019-03-09T13:00:23.461Z,1.10
2019-03-09T13:02:52.082Z,1.10
2019-03-09T13:05:20.795Z,1.00
2019-03-09T13:07:49.649Z,1.10
2019-03-09T13:10:18.334Z,1.27
2019-03-09T13:12:47.065Z,0.93
2019-03-09T13:15:15.863Z,1.30
2019-03-09T13:17:44.726Z,0.87
2019-03-09T13:20:13.573Z,1.00
2019-03-09T13:22:42.234Z,1.10
2019-03-09T13:25:10.916Z,1.20
2019-03-09T13:27:39.657Z,1.20
2019-03-09T13:30:09.504Z,0.90
2019-03-09T13:32:38.217Z,1.13
2019-03-09T13:35:06.892Z,0.90
2019-03-09T13:37:35.576Z,0.87
2019-03-09T13:40:04.372Z,0.97
2019-03-09T13:42:33.067Z,0.80
2019-03-09T13:45:02.179Z,0.90
2019-03-09T13:47:31.024Z,0.83
2019-03-09T13:49:59.680Z,1.10
2019-03-09T13:52:28.331Z,1.30
2019-03-09T13:54:57.004Z,1.03
2019-03-09T13:57:25.683Z,1.10
2019-03-09T13:59:54.388Z,1.10
2019-03-09T14:02:23.184Z,0.87
2019-03-09T14:04:51.951Z,1.00
2019-03-09T14:07:20.621Z,1.00
2019-03-09T14:09:49.287Z,0.90
2019-03-09T14:12:18.029Z,0.90
2019-03-09T14:14:46.726Z,0.90
2019-03-09T14:17:15.406Z,1.10
2019-03-09T14:19:44.144Z,1.20
2019-03-09T14:22:12.812Z,1.23
2019-03-09T14:24:41.457Z,1.20
2019-03-09T14:27:10.057Z,1.10
2019-03-09T14:29:38.829Z,0.90
2019-03-09T14:32:07.508Z,1.03
2019-03-09T14:34:36.199Z,1.10
2019-03-09T14:37:04.852Z,0.90
2019-03-09T14:39:33.518Z,1.30
2019-03-09T14:42:02.138Z,1.10
2019-03-09T14:44:30.815Z,1.20
2019-03-09T14:46:59.513Z,1.30
2019-03-09T14:49:28.387Z,1.20
2019-03-09T14:51:57.111Z,1.53
2019-03-09T14:54:25.835Z,1.20
2019-03-09T14:56:54.659Z,1.10
2019-03-09T14:59:23.248Z,1.23
2019-03-09T15:01:51.957Z,1.03
2019-03-09T15:04:20.643Z,0.80
2019-03-09T15:06:49.253Z,0.80
2019-03-09T15:09:17.946Z,0.90
2019-03-09T15:11:46.719Z,0.90
2019-03-09T15:14:15.450Z,1.00
2019-03-09T15:16:44.174Z,1.00
2019-03-09T15:19:12.843Z,0.80
2019-03-09T15:21:41.429Z,0.80
2019-03-09T15:24:10.131Z,1.00
2019-03-09T15:26:38.927Z,1.60
2019-03-09T15:29:07.633Z,1.37
2019-03-09T15:31:36.834Z,1.13
2019-03-09T15:34:05.513Z,1.10
2019-03-09T15:36:34.244Z,1.20
2019-03-09T15:39:04.650Z,1.00
2019-03-09T15:41:33.325Z,1.00
2019-03-09T15:44:01.978Z,1.27
2019-03-09T15:46:30.846Z,0.93
2019-03-09T15:48:59.604Z,1.23
2019-03-09T15:51:28.261Z,1.30
2019-03-09T15:53:57.576Z,1.53
2019-03-09T15:56:26.321Z,1.13
2019-03-09T15:58:54.943Z,0.90
2019-03-09T16:01:23.674Z,1.13
2019-03-09T16:03:52.359Z,1.10
2019-03-09T16:06:20.987Z,1.10
2019-03-09T16:08:49.672Z,1.10
2019-03-09T16:11:18.368Z,1.30
2019-03-09T16:13:47.068Z,1.00
2019-03-09T16:16:15.836Z,0.97
2019-03-09T16:18:44.562Z,1.07
2019-03-09T16:21:13.285Z,1.00
2019-03-09T16:23:42.037Z,1.00
2019-03-09T16:26:10.701Z,1.00
2019-03-09T16:28:39.614Z,1.20
2019-03-09T16:31:08.375Z,0.97
2019-03-09T16:33:37.073Z,0.93
2019-03-09T16:36:05.889Z,1.20
2019-03-09T16:38:34.637Z,1.13
2019-03-09T16:41:03.393Z,1.10
2019-03-09T16:43:32.171Z,1.10
2019-03-09T16:46:00.882Z,0.90
2019-03-09T16:48:29.615Z,1.07
2019-03-09T16:50:58.397Z,1.10
2019-03-09T16:53:27.116Z,0.90
2019-03-09T16:55:55.827Z,1.00
2019-03-09T16:58:24.448Z,1.30
2019-03-09T17:00:53.085Z,1.07
2019-03-09T17:03:21.797Z,0.80
2019-03-09T17:05:50.520Z,0.87
2019-03-09T17:08:19.204Z,0.80
2019-03-09T17:10:47.859Z,1.07
2019-03-09T17:13:16.526Z,0.77
2019-03-09T17:15:45.161Z,0.90
2019-03-09T17:18:13.851Z,1.10
2019-03-09T17:20:42.545Z,1.00
2019-03-09T17:23:11.199Z,0.87
2019-03-09T17:25:39.892Z,0.70
2019-03-09T17:28:08.740Z,1.20
2019-03-09T17:30:37.398Z,0.90
2019-03-09T17:33:05.993Z,1.10
2019-03-09T17:35:34.661Z,0.97
2019-03-09T17:38:03.382Z,0.90
2019-03-09T17:40:32.087Z,0.80
2019-03-09T17:43:00.820Z,1.10
2019-03-09T17:45:29.515Z,0.90
2019-03-09T17:47:58.266Z,0.90
2019-03-09T17:50:27.000Z,1.10
2019-03-09T17:52:55.727Z,0.80
2019-03-09T17:55:24.433Z,0.80
2019-03-09T17:57:53.221Z,0.90
2019-03-09T18:00:23.121Z,0.80
2019-03-09T18:02:51.814Z,0.83
2019-03-09T18:05:20.547Z,0.90
2019-03-09T18:07:49.290Z,0.90
2019-03-09T18:10:19.644Z,0.90
2019-03-09T18:12:48.348Z,1.00
2019-03-09T18:15:17.028Z,1.00
2019-03-09T18:17:45.817Z,0.80
2019-03-09T18:20:14.559Z,0.70
2019-03-09T18:22:43.276Z,0.80
2019-03-09T18:25:11.871Z,0.73
2019-03-09T18:27:40.641Z,0.80
2019-03-09T18:30:09.417Z,0.90
2019-03-09T18:32:38.050Z,0.67
2019-03-09T18:35:06.951Z,0.90
2019-03-09T18:37:35.642Z,0.80
2019-03-09T18:40:04.875Z,1.07
2019-03-09T18:42:33.602Z,0.90
2019-03-09T18:45:03.194Z,0.90
2019-03-09T18:47:32.018Z,0.67
2019-03-09T18:50:00.790Z,0.80
2019-03-09T18:52:29.487Z,0.50
2019-03-09T18:54:58.244Z,0.70
2019-03-09T18:57:26.850Z,0.70
2019-03-09T18:59:55.615Z,0.73
2019-03-09T19:02:24.308Z,0.80
2019-03-09T19:04:53.006Z,0.90
2019-03-09T19:07:24.718Z,1.00
2019-03-09T19:09:53.467Z,0.63
2019-03-09T19:12:22.169Z,0.70
2019-03-09T19:14:50.906Z,1.00
2019-03-09T19:17:19.626Z,0.80
2019-03-09T19:19:48.328Z,0.90
2019-03-09T19:22:17.039Z,0.90
2019-03-09T19:24:45.723Z,0.80
2019-03-09T19:27:14.382Z,0.87
2019-03-09T19:29:43.080Z,0.90
2019-03-09T19:32:11.814Z,0.90
2019-03-09T19:34:40.501Z,0.70
2019-03-09T19:37:09.143Z,0.80
2019-03-09T19:39:37.849Z,0.80
2019-03-09T19:42:06.561Z,0.93
2019-03-09T19:44:35.240Z,1.10
2019-03-09T19:47:04.025Z,0.80
2019-03-09T19:49:32.786Z,0.90
2019-03-09T19:52:01.363Z,1.20
2019-03-09T19:54:30.107Z,1.00
2019-03-09T19:56:58.774Z,1.03
2019-03-09T19:59:27.536Z,1.00
2019-03-09T20:01:56.267Z,1.10
2019-03-09T20:04:25.055Z,1.00
2019-03-09T20:06:53.834Z,1.20
2019-03-09T20:09:22.676Z,1.17
2019-03-09T20:11:51.432Z,1.50
2019-03-09T20:14:20.208Z,1.87
2019-03-09T20:16:48.982Z,2.23
2019-03-09T20:19:17.625Z,2.60
2019-03-09T20:21:46.428Z,2.90
2019-03-09T20:24:15.145Z,3.83
2019-03-09T20:26:43.906Z,3.40
2019-03-09T20:29:12.551Z,4.00
2019-03-09T20:31:41.283Z,3.47
2019-03-09T20:34:10.056Z,4.23
2019-03-09T20:36:38.829Z,5.00
2019-03-09T20:39:07.478Z,5.10
2019-03-09T20:41:36.202Z,5.10
2019-03-09T20:44:04.918Z,4.77
2019-03-09T20:46:41.662Z,4.27
2019-03-09T20:49:04.368Z,4.50
2019-03-09T20:51:33.207Z,4.67
2019-03-09T20:54:01.998Z,4.83
2019-03-09T20:56:30.743Z,4.60
2019-03-09T20:58:59.439Z,5.00
2019-03-09T21:01:31.331Z,4.23
2019-03-09T21:04:01.048Z,3.37
2019-03-09T21:06:29.963Z,2.63
2019-03-09T21:08:58.642Z,2.97
2019-03-09T21:11:29.195Z,2.40
2019-03-09T21:13:58.051Z,2.17
2019-03-09T21:16:28.897Z,2.00
2019-03-09T21:18:57.322Z,2.10
2019-03-09T21:21:26.009Z,1.50
2019-03-09T21:23:54.680Z,1.73
2019-03-09T21:26:23.394Z,1.80
2019-03-09T21:28:52.138Z,1.70
2019-03-09T21:31:20.848Z,1.80
2019-03-09T21:33:49.718Z,2.53
2019-03-09T21:36:18.407Z,2.90
2019-03-09T21:38:47.013Z,3.87
2019-03-09T21:41:15.689Z,4.00
2019-03-09T21:43:44.437Z,4.23
2019-03-09T21:46:13.198Z,4.17
2019-03-09T21:48:41.805Z,4.33
2019-03-09T21:51:10.544Z,4.73
2019-03-09T21:53:39.261Z,3.97
2019-03-09T21:56:07.941Z,3.53
2019-03-09T21:58:36.643Z,3.50
2019-03-09T22:01:05.318Z,4.30
2019-03-09T22:03:34.066Z,3.60
2019-03-09T22:06:06.301Z,3.10
2019-03-09T22:08:33.143Z,3.50
2019-03-09T22:11:01.908Z,3.13
2019-03-09T22:13:30.581Z,3.10
2019-03-09T22:15:59.291Z,2.80
2019-03-09T22:18:27.957Z,2.57
2019-03-09T22:20:56.650Z,2.70
2019-03-09T22:23:25.449Z,2.50
2019-03-09T22:25:54.122Z,2.70
2019-03-09T22:28:22.843Z,2.67
2019-03-09T22:30:51.704Z,2.60
2019-03-09T22:33:20.388Z,2.27
2019-03-09T22:35:49.093Z,2.53
2019-03-09T22:38:17.798Z,2.33
2019-03-09T22:40:46.477Z,2.37
2019-03-09T22:43:15.162Z,1.90
2019-03-09T22:45:43.899Z,1.90
2019-03-09T22:48:12.574Z,1.90
2019-03-09T22:50:41.226Z,1.80
2019-03-09T22:53:09.900Z,1.80
2019-03-09T22:55:38.596Z,2.10
2019-03-09T22:58:07.305Z,1.50
2019-03-09T23:00:36.684Z,1.93
2019-03-09T23:03:05.650Z,1.80
2019-03-09T23:05:34.300Z,1.70
2019-03-09T23:08:03.021Z,1.80
2019-03-09T23:10:31.746Z,1.90
2019-03-09T23:13:00.434Z,1.77
2019-03-09T23:15:29.171Z,1.93
2019-03-09T23:17:57.874Z,1.57
2019-03-09T23:20:26.665Z,1.80
2019-03-09T23:22:55.369Z,1.90
2019-03-09T23:25:24.153Z,1.87
2019-03-09T23:27:53.020Z,1.70
2019-03-09T23:30:21.794Z,1.70
2019-03-09T23:32:50.528Z,1.80
2019-03-09T23:35:19.284Z,2.07
2019-03-09T23:37:47.961Z,1.80
2019-03-09T23:40:17.019Z,1.80
2019-03-09T23:42:45.883Z,1.90
2019-03-09T23:45:14.936Z,1.73
2019-03-09T23:47:43.640Z,1.70
2019-03-09T23:50:12.910Z,2.07
2019-03-09T23:52:41.706Z,2.00
2019-03-09T23:55:20.743Z,1.70
2019-03-09T23:57:40.881Z,2.10
